Time;durP1;ratioP1;P1;durP2;ratioP2;P2;SDS_P1;SDS_P2;PMS_P1;PMS_P2;Temp;Humidity;BMP_temperature;BMP_pressure;BME280_temperature;BME280_humidity;BME280_pressure;Samples;Min_cycle;Max_cycle;Signal;HPM_P1;HPM_P2
2022/10/11 00:00:56;;;;;;;16.77;6.85;;;;;;;;;;6112511;23;20033;-76
2022/10/11 00:03:23;;;;;;;15.48;6.97;;;;;;;;;;6112726;23;20033;-76
2022/10/11 00:05:49;;;;;;;15.07;6.85;;;;;;;;;;6110829;23;20073;-76
2022/10/11 00:08:15;;;;;;;20.33;6.55;;;;;;;;;;6113317;23;20040;-76
2022/10/11 00:10:41;;;;;;;14.88;6.65;;;;;;;;;;6112668;23;20006;-75
2022/10/11 00:13:08;;;;;;;20.35;7.13;;;;;;;;;;6112739;23;20550;-76
2022/10/11 00:15:34;;;;;;;22.00;6.80;;;;;;;;;;6111235;23;20451;-76
2022/10/11 00:18:00;;;;;;;18.60;7.70;;;;;;;;;;6112778;23;20001;-75
2022/10/11 00:20:26;;;;;;;13.60;6.65;;;;;;;;;;6086446;23;20010;-76
2022/10/11 00:22:52;;;;;;;17.25;6.38;;;;;;;;;;6113528;23;20021;-76
2022/10/11 00:25:19;;;;;;;15.93;8.00;;;;;;;;;;6114986;23;20002;-74
2022/10/11 00:27:45;;;;;;;20.30;8.45;;;;;;;;;;6115318;23;20085;-76
2022/10/11 00:30:11;;;;;;;16.55;7.78;;;;;;;;;;6115395;23;20078;-75
2022/10/11 00:32:38;;;;;;;19.02;6.85;;;;;;;;;;6117019;23;20088;-76
2022/10/11 00:35:05;;;;;;;20.05;7.70;;;;;;;;;;6115278;23;20010;-76
2022/10/11 00:37:35;;;;;;;19.08;6.45;;;;;;;;;;6113610;23;20543;-76
2022/10/11 00:40:01;;;;;;;19.17;6.65;;;;;;;;;;6115166;23;20081;-76
2022/10/11 00:42:27;;;;;;;18.42;7.25;;;;;;;;;;6089875;23;20028;-76
2022/10/11 00:45:14;;;;;;;15.75;6.25;;;;;;;;;;6114251;23;20008;-76
2022/10/11 00:47:40;;;;;;;18.67;6.28;;;;;;;;;;6115295;23;19998;-76
2022/10/11 00:50:07;;;;;;;15.13;6.55;;;;;;;;;;6114501;23;20604;-77
2022/10/11 00:52:36;;;;;;;15.02;6.97;;;;;;;;;;6118179;23;20008;-76
2022/10/11 00:55:05;;;;;;;15.77;6.22;;;;;;;;;;6117137;23;20016;-76
2022/10/11 00:57:33;;;;;;;15.93;6.45;;;;;;;;;;6116839;23;20010;-76
2022/10/11 00:59:59;;;;;;;15.13;5.72;;;;;;;;;;6115594;23;20005;-75
2022/10/11 01:02:26;;;;;;;17.23;6.55;;;;;;;;;;6116647;23;20017;-75
2022/10/11 01:04:52;;;;;;;17.95;6.57;;;;;;;;;;6116813;23;20005;-75
2022/10/11 01:07:19;;;;;;;17.13;6.22;;;;;;;;;;6116531;23;20010;-76
2022/10/11 01:09:45;;;;;;;11.50;6.25;;;;;;;;;;6116978;23;20423;-75
2022/10/11 01:12:14;;;;;;;17.70;6.63;;;;;;;;;;6115603;23;20080;-75
2022/10/11 01:14:59;;;;;;;17.40;7.05;;;;;;;;;;6116403;23;20450;-76
2022/10/11 01:17:44;;;;;;;15.43;6.20;;;;;;;;;;6117153;23;20194;-76
2022/10/11 01:20:10;;;;;;;18.10;6.75;;;;;;;;;;6116988;23;20008;-75
2022/10/11 01:22:48;;;;;;;21.63;7.60;;;;;;;;;;6116298;23;20093;-76
2022/10/11 01:25:24;;;;;;;16.13;6.88;;;;;;;;;;6114444;23;20049;-76
2022/10/11 01:28:09;;;;;;;18.30;6.65;;;;;;;;;;6117556;23;19986;-75
2022/10/11 01:30:36;;;;;;;13.43;6.45;;;;;;;;;;6120066;23;20048;-75
2022/10/11 01:33:02;;;;;;;17.33;6.40;;;;;;;;;;6119961;23;20006;-75
2022/10/11 01:35:32;;;;;;;14.25;6.20;;;;;;;;;;6119563;23;20006;-75
2022/10/11 01:38:01;;;;;;;18.00;6.60;;;;;;;;;;6118782;23;20082;-75
2022/10/11 01:40:31;;;;;;;18.00;7.03;;;;;;;;;;6120172;23;20002;-75
2022/10/11 01:42:58;;;;;;;18.52;6.50;;;;;;;;;;6119618;23;20080;-75
2022/10/11 01:45:24;;;;;;;16.17;7.30;;;;;;;;;;6119215;23;19998;-75
2022/10/11 01:48:03;;;;;;;17.35;6.32;;;;;;;;;;6120022;23;20002;-75
2022/10/11 01:50:37;;;;;;;13.38;5.85;;;;;;;;;;6119327;23;20426;-75
2022/10/11 01:53:10;;;;;;;12.05;6.22;;;;;;;;;;6116769;23;20006;-75
2022/10/11 01:55:42;;;;;;;18.05;6.43;;;;;;;;;;6114007;23;20022;-75
2022/10/11 01:58:29;;;;;;;10.30;5.90;;;;;;;;;;6088148;23;20038;-75
2022/10/11 02:01:04;;;;;;;17.70;6.10;;;;;;;;;;6111982;23;20013;-75
2022/10/11 02:03:59;;;;;;;16.48;6.50;;;;;;;;;;6112376;23;20013;-75
2022/10/11 02:06:35;;;;;;;16.63;6.18;;;;;;;;;;6089114;23;20013;-75
2022/10/11 02:09:28;;;;;;;17.75;7.00;;;;;;;;;;6088019;23;20494;-76
2022/10/11 02:11:56;;;;;;;10.15;6.53;;;;;;;;;;6108334;23;20010;-75
2022/10/11 02:14:24;;;;;;;17.45;7.50;;;;;;;;;;6112252;23;20002;-75
2022/10/11 02:16:53;;;;;;;15.68;6.35;;;;;;;;;;6113920;23;20012;-75
2022/10/11 02:19:21;;;;;;;13.90;6.47;;;;;;;;;;6111472;23;20013;-76
2022/10/11 02:21:51;;;;;;;12.25;6.97;;;;;;;;;;6113642;23;20482;-75
2022/10/11 02:24:22;;;;;;;9.88;6.35;;;;;;;;;;6111334;23;20002;-75
2022/10/11 02:26:52;;;;;;;14.65;6.30;;;;;;;;;;6113435;23;20021;-75
2022/10/11 02:29:20;;;;;;;14.85;5.80;;;;;;;;;;6112980;23;20002;-76
2022/10/11 02:31:47;;;;;;;17.42;5.63;;;;;;;;;;6113429;23;20006;-75
2022/10/11 02:34:17;;;;;;;15.20;6.50;;;;;;;;;;6113376;23;20025;-75
2022/10/11 02:37:01;;;;;;;10.82;5.80;;;;;;;;;;6114553;23;20006;-75
2022/10/11 02:39:40;;;;;;;17.48;5.80;;;;;;;;;;6111683;23;20006;-75
2022/10/11 02:42:09;;;;;;;11.27;5.95;;;;;;;;;;6114355;23;20447;-76
2022/10/11 02:44:38;;;;;;;18.58;5.53;;;;;;;;;;6086748;23;20092;-75
2022/10/11 02:47:05;;;;;;;14.65;6.15;;;;;;;;;;6113196;23;20558;-75
2022/10/11 02:49:31;;;;;;;8.90;5.28;;;;;;;;;;6113326;23;20012;-76
2022/10/11 02:51:58;;;;;;;14.63;6.30;;;;;;;;;;6111137;23;20124;-76
2022/10/11 02:54:25;;;;;;;12.98;5.78;;;;;;;;;;6113146;23;20060;-76
2022/10/11 02:56:51;;;;;;;16.13;5.53;;;;;;;;;;6113549;23;20030;-76
2022/10/11 02:59:17;;;;;;;19.27;6.65;;;;;;;;;;6113949;23;20119;-76
2022/10/11 03:01:44;;;;;;;14.13;5.70;;;;;;;;;;6113557;23;20426;-75
2022/10/11 03:04:10;;;;;;;20.33;6.25;;;;;;;;;;6112576;23;20491;-76
2022/10/11 03:06:36;;;;;;;16.35;6.40;;;;;;;;;;6085504;23;20396;-75
2022/10/11 03:09:02;;;;;;;11.10;6.43;;;;;;;;;;6113606;23;20334;-76
2022/10/11 03:11:29;;;;;;;11.57;6.13;;;;;;;;;;6112824;23;20014;-75
2022/10/11 03:13:55;;;;;;;19.13;6.68;;;;;;;;;;6112066;23;20092;-75
2022/10/11 03:16:21;;;;;;;14.25;6.80;;;;;;;;;;6111488;23;20013;-75
2022/10/11 03:18:47;;;;;;;17.45;6.60;;;;;;;;;;6110063;23;20595;-75
2022/10/11 03:21:14;;;;;;;16.20;6.22;;;;;;;;;;6108002;23;21013;-76
2022/10/11 03:23:41;;;;;;;18.52;6.25;;;;;;;;;;6109634;23;20006;-76
2022/10/11 03:26:07;;;;;;;15.20;6.38;;;;;;;;;;6107968;23;20009;-74
2022/10/11 03:28:34;;;;;;;14.55;6.30;;;;;;;;;;6110339;23;20025;-76
2022/10/11 03:31:00;;;;;;;12.07;5.50;;;;;;;;;;6084860;23;20432;-75
2022/10/11 03:33:26;;;;;;;13.57;5.95;;;;;;;;;;6110107;23;20134;-75
2022/10/11 03:35:53;;;;;;;19.25;5.90;;;;;;;;;;6109767;23;20010;-76
2022/10/11 03:38:20;;;;;;;11.15;5.38;;;;;;;;;;6108101;23;20005;-76
2022/10/11 03:40:47;;;;;;;14.32;5.22;;;;;;;;;;6109960;23;20455;-75
2022/10/11 03:43:13;;;;;;;18.25;5.50;;;;;;;;;;6110356;23;20021;-75
2022/10/11 03:45:41;;;;;;;19.20;5.47;;;;;;;;;;6107523;23;20429;-75
2022/10/11 03:48:07;;;;;;;13.30;5.13;;;;;;;;;;6110129;23;20010;-76
2022/10/11 03:50:34;;;;;;;15.50;6.32;;;;;;;;;;6109662;23;20033;-76
2022/10/11 03:53:00;;;;;;;11.70;5.90;;;;;;;;;;6109681;23;20090;-76
2022/10/11 03:55:26;;;;;;;16.48;6.60;;;;;;;;;;6109207;23;20014;-76
2022/10/11 03:57:52;;;;;;;19.52;6.65;;;;;;;;;;6108388;23;20156;-75
2022/10/11 04:00:19;;;;;;;19.70;6.88;;;;;;;;;;6110900;23;20006;-76
2022/10/11 04:02:45;;;;;;;16.73;6.05;;;;;;;;;;6110269;23;20461;-76
2022/10/11 04:05:11;;;;;;;16.15;6.22;;;;;;;;;;6109503;23;20049;-76
2022/10/11 04:07:38;;;;;;;16.00;7.15;;;;;;;;;;6109644;23;20754;-76
2022/10/11 04:10:05;;;;;;;13.98;6.03;;;;;;;;;;6110377;23;20105;-76
2022/10/11 04:12:32;;;;;;;16.58;7.05;;;;;;;;;;6108125;23;20014;-76
2022/10/11 04:14:58;;;;;;;17.00;6.90;;;;;;;;;;6109561;23;20029;-76
2022/10/11 04:17:24;;;;;;;17.00;6.55;;;;;;;;;;6109715;23;20010;-76
2022/10/11 04:19:50;;;;;;;17.58;6.68;;;;;;;;;;6108592;23;20038;-75
2022/10/11 04:22:16;;;;;;;17.92;6.18;;;;;;;;;;6109061;23;20014;-76
2022/10/11 04:24:42;;;;;;;11.98;5.95;;;;;;;;;;6109905;23;20013;-75
2022/10/11 04:27:09;;;;;;;19.13;7.93;;;;;;;;;;6110133;23;20363;-75
2022/10/11 04:29:35;;;;;;;14.05;6.35;;;;;;;;;;6111158;23;20002;-76
2022/10/11 04:32:01;;;;;;;21.50;6.82;;;;;;;;;;6112131;23;20024;-76
2022/10/11 04:34:27;;;;;;;16.95;6.75;;;;;;;;;;6111238;23;20420;-76
2022/10/11 04:36:53;;;;;;;13.95;5.90;;;;;;;;;;6111834;23;20010;-77
2022/10/11 04:39:20;;;;;;;13.77;6.78;;;;;;;;;;6109674;23;20002;-76
2022/10/11 04:41:46;;;;;;;15.95;5.80;;;;;;;;;;6111936;23;20117;-75
2022/10/11 04:44:12;;;;;;;19.08;6.25;;;;;;;;;;6111253;23;20006;-75
2022/10/11 04:46:38;;;;;;;14.73;6.70;;;;;;;;;;6111595;23;20005;-75
2022/10/11 04:49:05;;;;;;;15.27;6.15;;;;;;;;;;6112141;23;20052;-76
2022/10/11 04:51:32;;;;;;;11.10;5.63;;;;;;;;;;6084601;23;20124;-75
2022/10/11 04:53:58;;;;;;;13.98;6.30;;;;;;;;;;6110834;23;20014;-76
2022/10/11 04:56:25;;;;;;;21.30;7.75;;;;;;;;;;6110782;23;20009;-76
2022/10/11 04:58:53;;;;;;;16.33;6.47;;;;;;;;;;6112064;23;20002;-76
2022/10/11 05:01:19;;;;;;;12.50;5.78;;;;;;;;;;6109911;23;20476;-77
2022/10/11 05:03:46;;;;;;;23.83;6.32;;;;;;;;;;6111591;23;20009;-76
2022/10/11 05:06:12;;;;;;;16.98;6.13;;;;;;;;;;6110979;23;20002;-74
2022/10/11 05:08:39;;;;;;;14.45;5.20;;;;;;;;;;6111438;23;20009;-76
2022/10/11 05:11:06;;;;;;;12.25;5.53;;;;;;;;;;6110203;23;20002;-76
2022/10/11 05:13:33;;;;;;;13.02;5.60;;;;;;;;;;6111550;23;20002;-74
2022/10/11 05:15:59;;;;;;;20.70;5.70;;;;;;;;;;6110261;23;20009;-76
2022/10/11 05:18:26;;;;;;;19.27;6.10;;;;;;;;;;6112295;23;20013;-76
2022/10/11 05:21:03;;;;;;;16.77;6.05;;;;;;;;;;6109429;23;20033;-75
2022/10/11 05:23:30;;;;;;;11.73;5.70;;;;;;;;;;6110282;23;20112;-75
2022/10/11 05:25:56;;;;;;;16.25;5.30;;;;;;;;;;6084780;23;20560;-76
2022/10/11 05:28:22;;;;;;;16.65;6.43;;;;;;;;;;6114165;23;20442;-75
2022/10/11 05:30:49;;;;;;;13.57;5.93;;;;;;;;;;6114162;23;19994;-77
2022/10/11 05:33:15;;;;;;;11.95;5.90;;;;;;;;;;6111946;23;20006;-77
2022/10/11 05:35:41;;;;;;;22.10;6.35;;;;;;;;;;6113803;23;20002;-76
2022/10/11 05:38:07;;;;;;;13.15;6.38;;;;;;;;;;6113544;23;20077;-74
2022/10/11 05:40:33;;;;;;;16.65;6.25;;;;;;;;;;6114310;23;20002;-73
2022/10/11 05:43:00;;;;;;;15.20;6.32;;;;;;;;;;6111945;23;20013;-74
2022/10/11 05:45:26;;;;;;;17.23;6.75;;;;;;;;;;6113594;23;20009;-75
2022/10/11 05:47:52;;;;;;;20.33;6.60;;;;;;;;;;6113709;23;20010;-73
2022/10/11 05:50:18;;;;;;;15.48;6.60;;;;;;;;;;6088067;23;20145;-74
2022/10/11 05:52:44;;;;;;;20.55;6.75;;;;;;;;;;6113749;23;20007;-73
2022/10/11 05:55:10;;;;;;;13.48;6.13;;;;;;;;;;6113444;23;20021;-73
2022/10/11 05:57:37;;;;;;;14.00;5.88;;;;;;;;;;6111885;23;20005;-73
2022/10/11 06:00:04;;;;;;;16.67;6.32;;;;;;;;;;6113823;23;20052;-73
2022/10/11 06:02:30;;;;;;;19.23;6.68;;;;;;;;;;6113471;23;20326;-73
2022/10/11 06:04:56;;;;;;;18.05;8.02;;;;;;;;;;6113576;23;20338;-73
2022/10/11 06:07:22;;;;;;;20.10;7.20;;;;;;;;;;6113839;23;20085;-74
2022/10/11 06:09:48;;;;;;;14.80;6.45;;;;;;;;;;6112031;23;20378;-73
2022/10/11 06:12:15;;;;;;;14.25;6.45;;;;;;;;;;6112850;23;20028;-73
2022/10/11 06:14:42;;;;;;;11.20;5.93;;;;;;;;;;6112221;23;20098;-77
2022/10/11 06:17:08;;;;;;;15.75;6.30;;;;;;;;;;6113320;23;20006;-74
2022/10/11 06:19:34;;;;;;;11.25;6.32;;;;;;;;;;6113503;23;20002;-75
2022/10/11 06:22:00;;;;;;;10.98;6.00;;;;;;;;;;6106717;23;20013;-75
2022/10/11 06:24:26;;;;;;;16.75;6.28;;;;;;;;;;6106695;23;20546;-76
2022/10/11 06:26:54;;;;;;;19.58;6.78;;;;;;;;;;6085778;23;20087;-75
2022/10/11 06:29:21;;;;;;;11.65;6.10;;;;;;;;;;6113699;23;20002;-75
2022/10/11 06:31:48;;;;;;;15.27;6.43;;;;;;;;;;6112652;23;20092;-75
2022/10/11 06:34:14;;;;;;;11.55;5.50;;;;;;;;;;6112801;23;20137;-75
2022/10/11 06:36:41;;;;;;;21.73;6.68;;;;;;;;;;6112484;23;20002;-75
2022/10/11 06:39:07;;;;;;;8.45;5.20;;;;;;;;;;6112261;23;20060;-75
2022/10/11 06:41:33;;;;;;;14.13;6.10;;;;;;;;;;6113989;23;20347;-76
2022/10/11 06:44:00;;;;;;;15.13;7.65;;;;;;;;;;6112573;23;20005;-75
2022/10/11 06:46:27;;;;;;;16.63;9.15;;;;;;;;;;6113172;23;20009;-76
2022/10/11 06:48:55;;;;;;;17.17;7.57;;;;;;;;;;6113001;23;20028;-76
2022/10/11 06:51:21;;;;;;;20.45;8.50;;;;;;;;;;6110811;23;20013;-75
2022/10/11 06:53:49;;;;;;;18.13;7.25;;;;;;;;;;6113130;23;20006;-75
2022/10/11 06:56:15;;;;;;;12.07;6.70;;;;;;;;;;6112454;23;20068;-75
2022/10/11 06:58:41;;;;;;;16.20;7.13;;;;;;;;;;6112966;23;20009;-76
2022/10/11 07:01:09;;;;;;;12.90;5.97;;;;;;;;;;6087355;23;20073;-75
2022/10/11 07:03:36;;;;;;;20.52;7.38;;;;;;;;;;6111170;23;20065;-75
2022/10/11 07:06:18;;;;;;;11.93;5.85;;;;;;;;;;6111959;23;20031;-75
2022/10/11 07:08:45;;;;;;;18.90;9.02;;;;;;;;;;6112833;23;20010;-76
2022/10/11 07:11:18;;;;;;;23.98;9.00;;;;;;;;;;6086669;23;20339;-76
2022/10/11 07:13:49;;;;;;;16.55;8.18;;;;;;;;;;6113406;23;20010;-75
2022/10/11 07:16:15;;;;;;;17.05;8.65;;;;;;;;;;6110616;23;20056;-75
2022/10/11 07:18:41;;;;;;;14.60;8.57;;;;;;;;;;6111249;23;20005;-75
2022/10/11 07:21:09;;;;;;;15.77;7.90;;;;;;;;;;6111219;23;20451;-76
2022/10/11 07:23:35;;;;;;;14.50;6.85;;;;;;;;;;6110875;23;20010;-75
2022/10/11 07:26:01;;;;;;;22.63;7.78;;;;;;;;;;6108358;23;20709;-76
2022/10/11 07:28:29;;;;;;;16.02;7.57;;;;;;;;;;6085334;23;20006;-75
2022/10/11 07:30:55;;;;;;;14.30;6.50;;;;;;;;;;6110594;23;20005;-76
2022/10/11 07:33:22;;;;;;;12.88;7.72;;;;;;;;;;6112821;23;20002;-75
2022/10/11 07:35:48;;;;;;;17.70;8.30;;;;;;;;;;6110634;23;20002;-76
2022/10/11 07:38:15;;;;;;;9.20;6.53;;;;;;;;;;6113319;23;20583;-76
2022/10/11 07:40:43;;;;;;;17.85;10.00;;;;;;;;;;6112729;23;20496;-76
2022/10/11 07:43:09;;;;;;;22.40;9.90;;;;;;;;;;6087561;23;20017;-76
2022/10/11 07:45:44;;;;;;;16.08;9.40;;;;;;;;;;6112356;23;20002;-76
2022/10/11 07:48:10;;;;;;;23.95;9.32;;;;;;;;;;6112304;23;20001;-75
2022/10/11 07:50:37;;;;;;;14.95;8.45;;;;;;;;;;6111132;23;20002;-76
2022/10/11 07:53:03;;;;;;;10.88;6.60;;;;;;;;;;6113031;23;20006;-76
2022/10/11 07:55:30;;;;;;;14.27;5.97;;;;;;;;;;6112456;23;20502;-76
2022/10/11 07:57:57;;;;;;;7.88;4.60;;;;;;;;;;6112717;23;20038;-76
2022/10/11 08:00:23;;;;;;;17.15;5.68;;;;;;;;;;6113428;23;20010;-75
2022/10/11 08:02:49;;;;;;;11.07;5.13;;;;;;;;;;6110538;23;20089;-76
2022/10/11 08:05:15;;;;;;;15.52;5.25;;;;;;;;;;6111745;23;20133;-76
2022/10/11 08:07:42;;;;;;;13.95;4.90;;;;;;;;;;6112456;23;20048;-75
2022/10/11 08:10:08;;;;;;;13.32;4.80;;;;;;;;;;6112418;23;19998;-76
2022/10/11 08:12:34;;;;;;;16.50;5.88;;;;;;;;;;6112592;23;20558;-76
2022/10/11 08:15:01;;;;;;;13.35;5.35;;;;;;;;;;6110769;23;20408;-75
2022/10/11 08:17:27;;;;;;;15.88;5.57;;;;;;;;;;6087010;23;20014;-75
2022/10/11 08:19:53;;;;;;;13.57;6.10;;;;;;;;;;6112767;23;20072;-76
2022/10/11 08:22:19;;;;;;;13.02;5.50;;;;;;;;;;6111959;23;20059;-75
2022/10/11 08:24:45;;;;;;;13.25;6.10;;;;;;;;;;6110052;23;20010;-76
2022/10/11 08:27:12;;;;;;;15.27;5.68;;;;;;;;;;6109024;23;20206;-76
2022/10/11 08:29:38;;;;;;;14.32;5.80;;;;;;;;;;6084329;23;20085;-75
2022/10/11 08:32:04;;;;;;;17.58;5.68;;;;;;;;;;6113091;23;20026;-76
2022/10/11 08:34:30;;;;;;;13.68;5.85;;;;;;;;;;6112772;23;20010;-76
2022/10/11 08:36:57;;;;;;;13.90;5.35;;;;;;;;;;6111850;23;20009;-75
2022/10/11 08:39:23;;;;;;;13.55;5.28;;;;;;;;;;6110950;23;20085;-76
2022/10/11 08:41:54;;;;;;;15.85;5.53;;;;;;;;;;6112860;23;20044;-76
2022/10/11 08:44:33;;;;;;;10.30;5.53;;;;;;;;;;6112160;23;20009;-76
2022/10/11 08:47:02;;;;;;;13.68;5.75;;;;;;;;;;6112967;23;20308;-76
2022/10/11 08:49:30;;;;;;;17.77;5.63;;;;;;;;;;6112617;23;20230;-76
2022/10/11 08:52:03;;;;;;;13.35;5.78;;;;;;;;;;6111156;23;20002;-75
2022/10/11 08:54:55;;;;;;;11.68;5.50;;;;;;;;;;6112668;23;20081;-76
2022/10/11 08:57:23;;;;;;;14.65;5.45;;;;;;;;;;6108669;23;20108;-75
2022/10/11 08:59:57;;;;;;;10.90;5.13;;;;;;;;;;6111152;23;20424;-76
2022/10/11 09:02:42;;;;;;;13.48;5.45;;;;;;;;;;6112274;23;20014;-76
2022/10/11 09:05:12;;;;;;;15.73;5.50;;;;;;;;;;6112214;23;20010;-75
2022/10/11 09:07:41;;;;;;;12.90;5.60;;;;;;;;;;6112541;23;20113;-76
2022/10/11 09:10:23;;;;;;;13.68;6.28;;;;;;;;;;6112238;23;20002;-76
2022/10/11 09:12:49;;;;;;;13.07;5.85;;;;;;;;;;6113978;23;20006;-75
2022/10/11 09:15:20;;;;;;;10.18;5.40;;;;;;;;;;6111721;23;20434;-75
2022/10/11 09:18:08;;;;;;;13.07;6.00;;;;;;;;;;6113936;23;20574;-75
2022/10/11 09:20:40;;;;;;;14.10;5.72;;;;;;;;;;6114069;23;20231;-75
2022/10/11 09:23:06;;;;;;;14.05;5.40;;;;;;;;;;6112499;23;20431;-76
2022/10/11 09:25:55;;;;;;;13.35;5.43;;;;;;;;;;6113510;23;20048;-75
2022/10/11 09:28:28;;;;;;;13.68;5.03;;;;;;;;;;6099162;23;20025;-75
2022/10/11 09:30:55;;;;;;;12.45;4.93;;;;;;;;;;6114098;23;20105;-75
2022/10/11 09:33:37;;;;;;;10.75;4.80;;;;;;;;;;6113022;23;20009;-76
2022/10/11 09:36:13;;;;;;;14.55;5.70;;;;;;;;;;6113472;23;20056;-76
2022/10/11 09:38:40;;;;;;;11.05;5.45;;;;;;;;;;6113487;23;20203;-75
2022/10/11 09:41:09;;;;;;;13.32;5.82;;;;;;;;;;6113479;23;20026;-75
2022/10/11 09:43:35;;;;;;;10.63;5.93;;;;;;;;;;6086684;23;20021;-75
2022/10/11 09:46:01;;;;;;;15.18;6.15;;;;;;;;;;6113540;23;20879;-76
2022/10/11 09:48:37;;;;;;;14.52;5.43;;;;;;;;;;6113856;23;20009;-75
2022/10/11 09:51:06;;;;;;;14.07;5.18;;;;;;;;;;6114240;23;20145;-75
2022/10/11 09:53:48;;;;;;;12.95;5.15;;;;;;;;;;6112481;23;20136;-75
2022/10/11 09:56:15;;;;;;;9.73;5.22;;;;;;;;;;6113231;23;20353;-75
2022/10/11 09:58:41;;;;;;;13.30;5.47;;;;;;;;;;6113746;23;20002;-75
2022/10/11 10:01:09;;;;;;;12.55;5.13;;;;;;;;;;6114061;23;20469;-75
2022/10/11 10:03:36;;;;;;;10.05;4.57;;;;;;;;;;6111630;23;20010;-76
2022/10/11 10:06:06;;;;;;;13.95;5.03;;;;;;;;;;6113236;23;20443;-75
2022/10/11 10:08:32;;;;;;;10.52;5.20;;;;;;;;;;6113478;23;20018;-76
2022/10/11 10:11:01;;;;;;;11.25;5.10;;;;;;;;;;6114062;23;20343;-76
2022/10/11 10:13:40;;;;;;;14.55;5.85;;;;;;;;;;6114030;23;20100;-76
2022/10/11 10:16:10;;;;;;;11.25;4.30;;;;;;;;;;6113027;23;20005;-76
2022/10/11 10:18:38;;;;;;;10.43;4.80;;;;;;;;;;6112009;23;20009;-76
2022/10/11 10:21:08;;;;;;;13.18;4.72;;;;;;;;;;6114472;23;19998;-76
2022/10/11 10:23:35;;;;;;;9.25;5.03;;;;;;;;;;6113888;23;20165;-76
2022/10/11 10:26:11;;;;;;;8.93;4.68;;;;;;;;;;6111823;23;20010;-76
2022/10/11 10:28:37;;;;;;;12.38;4.70;;;;;;;;;;6114465;23;20009;-76
2022/10/11 10:31:03;;;;;;;14.63;4.97;;;;;;;;;;6113139;23;20459;-76
2022/10/11 10:33:32;;;;;;;13.02;5.38;;;;;;;;;;6113418;23;20033;-76
2022/10/11 10:36:05;;;;;;;10.98;4.47;;;;;;;;;;6112944;23;20093;-76
2022/10/11 10:38:40;;;;;;;14.77;4.95;;;;;;;;;;6111236;23;20080;-76
2022/10/11 10:41:10;;;;;;;11.75;4.60;;;;;;;;;;6086929;23;20016;-75
2022/10/11 10:43:37;;;;;;;12.43;5.28;;;;;;;;;;6112586;23;20339;-76
2022/10/11 10:46:27;;;;;;;10.73;5.13;;;;;;;;;;6112578;23;20002;-76
2022/10/11 10:49:09;;;;;;;9.82;4.43;;;;;;;;;;6112328;23;20415;-75
2022/10/11 10:51:38;;;;;;;9.68;4.40;;;;;;;;;;6113224;23;20081;-76
2022/10/11 10:54:23;;;;;;;12.77;4.25;;;;;;;;;;6113379;23;20002;-76
2022/10/11 10:56:55;;;;;;;12.40;4.97;;;;;;;;;;6112475;23;20018;-76
2022/10/11 10:59:30;;;;;;;11.50;4.43;;;;;;;;;;6112404;23;20080;-76
2022/10/11 11:02:19;;;;;;;14.23;4.45;;;;;;;;;;6113039;23;20093;-75
2022/10/11 11:05:04;;;;;;;12.45;4.60;;;;;;;;;;6058742;23;20028;-75
2022/10/11 11:07:38;;;;;;;9.90;4.70;;;;;;;;;;6087521;23;20068;-75
2022/10/11 11:10:14;;;;;;;13.80;5.00;;;;;;;;;;6112483;23;20123;-75
2022/10/11 11:12:49;;;;;;;8.13;4.00;;;;;;;;;;6113305;23;20470;-75
2022/10/11 11:15:32;;;;;;;20.65;5.18;;;;;;;;;;6086931;23;20006;-75
2022/10/11 11:18:04;;;;;;;6.60;4.20;;;;;;;;;;6111795;23;20455;-75
2022/10/11 11:20:30;;;;;;;10.20;4.82;;;;;;;;;;6112860;23;20333;-75
2022/10/11 11:23:15;;;;;;;10.25;4.15;;;;;;;;;;6112811;23;20375;-75
2022/10/11 11:25:41;;;;;;;11.48;4.40;;;;;;;;;;6087070;23;20347;-75
2022/10/11 11:28:10;;;;;;;15.13;4.70;;;;;;;;;;6113228;23;20006;-75
2022/10/11 11:30:46;;;;;;;12.60;4.85;;;;;;;;;;6111509;23;20006;-75
2022/10/11 11:33:22;;;;;;;11.02;4.43;;;;;;;;;;6112838;23;20017;-75
2022/10/11 11:35:51;;;;;;;12.23;4.85;;;;;;;;;;6111660;23;20015;-75
2022/10/11 11:38:39;;;;;;;10.68;4.35;;;;;;;;;;6112585;23;19998;-75
2022/10/11 11:41:25;;;;;;;11.50;4.72;;;;;;;;;;6110168;23;20007;-77
2022/10/11 11:43:59;;;;;;;12.43;3.75;;;;;;;;;;6110861;23;20018;-77
2022/10/11 11:46:29;;;;;;;19.45;4.78;;;;;;;;;;6109475;23;20077;-76
2022/10/11 11:48:57;;;;;;;13.98;5.13;;;;;;;;;;6112531;23;20790;-77
2022/10/11 11:51:34;;;;;;;10.35;4.57;;;;;;;;;;6111421;23;20029;-79
2022/10/11 11:54:19;;;;;;;11.90;4.25;;;;;;;;;;6112383;23;20003;-77
2022/10/11 11:56:59;;;;;;;10.93;4.60;;;;;;;;;;6107120;23;20110;-78
2022/10/11 11:59:28;;;;;;;12.55;4.63;;;;;;;;;;6109883;23;20009;-77
2022/10/11 12:02:26;;;;;;;16.20;5.47;;;;;;;;;;6109468;23;20093;-76
2022/10/11 12:04:52;;;;;;;13.18;4.85;;;;;;;;;;6107189;23;20463;-81
2022/10/11 12:07:20;;;;;;;12.48;4.68;;;;;;;;;;6108466;23;20459;-76
2022/10/11 12:09:49;;;;;;;14.07;4.53;;;;;;;;;;6109144;23;20009;-76
2022/10/11 12:15:34;;;;;;;12.55;4.60;;;;;;;;;;6090128;23;20010;-76
2022/10/11 12:18:00;;;;;;;18.92;4.10;;;;;;;;;;6108207;23;20016;-75
2022/10/11 12:20:27;;;;;;;11.48;3.97;;;;;;;;;;6108117;23;20021;-78
2022/10/11 12:22:59;;;;;;;10.85;4.35;;;;;;;;;;6109604;23;20014;-78
2022/10/11 12:25:30;;;;;;;11.60;3.60;;;;;;;;;;6107343;23;20005;-83
2022/10/11 12:27:57;;;;;;;7.18;3.50;;;;;;;;;;6108762;23;20010;-76
2022/10/11 12:30:42;;;;;;;10.63;3.97;;;;;;;;;;6107617;23;20014;-78
2022/10/11 12:33:15;;;;;;;10.73;3.70;;;;;;;;;;6109141;23;19998;-77
2022/10/11 12:36:07;;;;;;;10.48;4.50;;;;;;;;;;6108412;23;20010;-78
2022/10/11 12:38:38;;;;;;;10.75;3.53;;;;;;;;;;6106756;23;20012;-78
2022/10/11 12:41:15;;;;;;;14.23;4.18;;;;;;;;;;6108272;23;20014;-77
2022/10/11 12:43:48;;;;;;;8.27;3.58;;;;;;;;;;6108572;23;20017;-78
2022/10/11 12:46:32;;;;;;;12.68;4.15;;;;;;;;;;6108666;23;20029;-80
2022/10/11 12:48:58;;;;;;;9.13;3.85;;;;;;;;;;6109205;23;20018;-76
2022/10/11 12:51:40;;;;;;;8.85;3.92;;;;;;;;;;6111569;23;20197;-77
2022/10/11 12:54:06;;;;;;;;;;;;;;;;;;6109991;23;20059;-78
2022/10/11 12:56:38;;;;;;;10.77;3.65;;;;;;;;;;6108384;23;20327;-78
2022/10/11 12:59:06;;;;;;;11.10;4.35;;;;;;;;;;6110765;23;20081;-77
2022/10/11 13:01:47;;;;;;;8.70;3.38;;;;;;;;;;6110773;23;20091;-79
2022/10/11 13:04:17;;;;;;;7.25;3.83;;;;;;;;;;6109620;23;20040;-77
2022/10/11 13:06:47;;;;;;;10.93;3.63;;;;;;;;;;6110557;23;20006;-77
2022/10/11 13:09:17;;;;;;;10.32;3.60;;;;;;;;;;6110765;23;20002;-77
2022/10/11 13:11:56;;;;;;;10.85;3.55;;;;;;;;;;6107910;23;19998;-78
2022/10/11 13:14:25;;;;;;;15.25;4.00;;;;;;;;;;6108780;23;20105;-77
2022/10/11 13:17:03;;;;;;;9.02;3.92;;;;;;;;;;6110463;23;20005;-76
2022/10/11 13:19:33;;;;;;;12.65;4.30;;;;;;;;;;6111310;23;20021;-77
2022/10/11 13:22:01;;;;;;;9.55;3.40;;;;;;;;;;6110562;23;20016;-76
2022/10/11 13:24:33;;;;;;;10.13;3.75;;;;;;;;;;6111054;23;20016;-77
2022/10/11 13:27:00;;;;;;;10.48;3.78;;;;;;;;;;6109408;23;20082;-79
2022/10/11 13:29:32;;;;;;;12.00;4.10;;;;;;;;;;6110913;23;20012;-77
2022/10/11 13:32:20;;;;;;;;;;;;;;;;;;;;;
2022/10/11 13:34:55;;;;;;;8.13;3.58;;;;;;;;;;6109649;23;20012;-81
2022/10/11 13:37:26;;;;;;;10.50;4.03;;;;;;;;;;6110648;23;20006;-78
2022/10/11 13:39:53;;;;;;;10.90;3.75;;;;;;;;;;6110217;23;20073;-76
2022/10/11 13:42:21;;;;;;;11.73;4.70;;;;;;;;;;6084528;23;20026;-76
2022/10/11 13:44:47;;;;;;;8.60;3.88;;;;;;;;;;6110331;23;20457;-76
2022/10/11 13:47:15;;;;;;;11.10;4.05;;;;;;;;;;6108635;23;20006;-77
2022/10/11 13:50:01;;;;;;;8.15;3.90;;;;;;;;;;6110360;23;19998;-78
2022/10/11 13:52:28;;;;;;;10.15;4.03;;;;;;;;;;6090741;23;20006;-77
2022/10/11 13:55:13;;;;;;;11.20;4.20;;;;;;;;;;6110526;23;20013;-76
2022/10/11 13:57:44;;;;;;;12.38;4.13;;;;;;;;;;6107949;23;19998;-77
2022/10/11 14:00:11;;;;;;;8.75;3.97;;;;;;;;;;6084433;23;20006;-77
2022/10/11 14:02:37;;;;;;;9.02;3.95;;;;;;;;;;6084116;23;20076;-77
2022/10/11 14:05:03;;;;;;;8.38;4.40;;;;;;;;;;6109806;23;20081;-78
2022/10/11 14:07:32;;;;;;;8.20;3.83;;;;;;;;;;6108137;23;20006;-77
2022/10/11 14:09:59;;;;;;;8.57;3.40;;;;;;;;;;6108058;23;20085;-77
2022/10/11 14:12:28;;;;;;;10.20;4.00;;;;;;;;;;6111210;23;20096;-78
2022/10/11 14:14:56;;;;;;;12.55;4.25;;;;;;;;;;6110555;23;20002;-77
2022/10/11 14:17:31;;;;;;;12.57;3.85;;;;;;;;;;6110539;23;20005;-77
2022/10/11 14:20:27;;;;;;;9.68;3.25;;;;;;;;;;6110423;23;20077;-79
2022/10/11 14:22:53;;;;;;;10.55;3.97;;;;;;;;;;6060341;23;20045;-78
2022/10/11 14:25:20;;;;;;;11.50;4.22;;;;;;;;;;6110254;23;20441;-77
2022/10/11 14:27:46;;;;;;;8.15;3.92;;;;;;;;;;6110046;23;20085;-78
2022/10/11 14:30:17;;;;;;;10.25;4.07;;;;;;;;;;6108500;23;20002;-77
2022/10/11 14:32:43;;;;;;;9.57;3.78;;;;;;;;;;6110634;23;20089;-76
2022/10/11 14:35:17;;;;;;;22.58;4.90;;;;;;;;;;6109727;23;20308;-76
2022/10/11 14:37:44;;;;;;;10.52;4.22;;;;;;;;;;6109284;23;20454;-77
2022/10/11 14:40:15;;;;;;;8.15;3.60;;;;;;;;;;6109822;23;20006;-77
2022/10/11 14:42:42;;;;;;;13.02;4.45;;;;;;;;;;6108521;23;20018;-77
2022/10/11 14:45:08;;;;;;;11.30;4.10;;;;;;;;;;6110461;23;20014;-78
2022/10/11 14:47:34;;;;;;;13.13;3.95;;;;;;;;;;6084633;23;20948;-76
2022/10/11 14:50:01;;;;;;;14.25;4.72;;;;;;;;;;6108171;23;20010;-76
2022/10/11 14:52:27;;;;;;;12.43;4.13;;;;;;;;;;6110521;23;20029;-76